Latest Weather Observations for Ivanhoe Airport

IDN60801

Issued at 11:33 am EST Saturday 25 June 2016 (issued every 30 minutes, with the page automatically refreshed every 10 minutes)

About weather observations | Map of weather stations | Latest weather observations for NSW | Other Formats
Station Details ID: 049000 Name: IVANHOE AERODROME AWS Lat: -32.88 Lon: 144.31 Height: 100.0 m
Data from the previous 72 hours. | See also: Recent months at Ivanhoe Airport
Date/Time
EST
Temp
°C
App
Temp
°C
Dew
Point
°C
Rel
Hum
%
Delta-T
°C
Wind Press
QNH
hPa
Press
MSL
hPa
Rain since
9am
mm
Dir  Spd
km/h
Gust
km/h
Spd
kts
Gust
kts
25/11:30am 9.4 6.5 4.8 73 2.1 S 9 15 5 8 1025.4 1025.5 0.0
25/11:00am 8.5 4.7 4.1 74 1.9 SSE 13 17 7 9 1025.7 1025.8 0.0
25/10:30am 7.9 3.8 4.5 79 1.5 SSE 15 20 8 11 1025.8 1025.9 0.0
25/10:00am 6.8 3.5 4.5 85 1.0 SSW 11 17 6 9 1025.7 1025.8 0.0
25/09:30am 5.6 1.9 4.4 92 0.5 SSW 13 17 7 9 1025.5 1025.6 0.0
25/09:00am 4.6 1.7 4.5 99 0.0 SSW 9 15 5 8 1025.1 1025.2 0.2
25/08:30am 3.3 0.1 3.2 99 0.0 SW 9 13 5 7 1024.7 1024.8 0.2
25/08:00am 2.2 -1.2 2.1 99 0.0 WSW 9 11 5 6 1024.5 1024.6 0.2
25/07:30am 1.7 -2.1 1.6 99 0.0 WSW 11 13 6 7 1024.3 1024.4 0.2
25/07:00am 2.0 -1.8 1.9 99 0.0 WSW 11 13 6 7 1024.1 1024.2 0.0
25/06:30am 2.4 -1.3 2.3 99 0.0 WSW 11 15 6 8 1024.0 1024.1 0.0
25/06:00am 2.3 -1.4 2.2 99 0.0 WSW 11 13 6 7 1023.7 1023.8 0.0
25/05:30am 2.6 -0.7 2.5 99 0.0 WSW 9 13 5 7 1023.4 1023.5 0.0
25/05:00am 3.0 -0.6 2.7 98 0.1 WSW 11 15 6 8 1023.0 1023.1 0.0
25/04:30am 3.5 -0.5 3.1 97 0.2 SW 13 15 7 8 1022.8 1022.9 0.0
25/04:00am 3.6 -0.4 2.9 95 0.3 SW 13 17 7 9 1022.6 1022.7 0.0
25/03:30am 3.9 -0.1 3.0 94 0.4 SW 13 17 7 9 1022.3 1022.4 0.0
25/03:00am 4.4 0.1 3.4 93 0.4 WSW 15 19 8 10 1022.2 1022.3 0.0
25/02:30am 4.7 0.4 3.4 91 0.5 WSW 15 19 8 10 1022.2 1022.3 0.0
25/02:00am 5.1 0.8 3.4 89 0.7 WSW 15 20 8 11 1022.1 1022.2 0.0
25/01:30am 5.2 1.3 3.5 89 0.7 WSW 13 17 7 9 1022.1 1022.2 0.0
25/01:00am 5.4 1.5 3.6 88 0.8 WSW 13 19 7 10 1021.9 1022.0 0.0
25/12:30am 5.2 1.3 3.4 88 0.8 WSW 13 17 7 9 1021.8 1021.9 0.0
25/12:00am 5.2 1.3 3.4 88 0.7 WSW 13 17 7 9 1021.9 1022.0 0.0
 
Date/Time
EST
Temp
°C
App
Temp
°C
Dew
Point
°C
Rel
Hum
%
Delta-T
°C
Wind Press
QNH
hPa
Press
MSL
hPa
Rain since
9am
mm
Dir  Spd
km/h
Gust
km/h
Spd
kts
Gust
kts
24/11:30pm 4.8 1.3 3.3 90 0.6 W 11 13 6 7 1021.8 1021.9 0.0
24/11:00pm 4.9 1.4 3.4 90 0.6 W 11 13 6 7 1021.8 1021.9 0.0
24/10:30pm 4.8 1.2 3.0 88 0.7 WNW 11 13 6 7 1021.6 1021.7 0.0
24/10:00pm 5.6 2.0 3.1 84 1.0 W 11 13 6 7 1021.4 1021.5 0.0
24/09:30pm 6.5 2.6 3.5 81 1.3 W 13 19 7 10 1021.2 1021.3 0.0
24/09:00pm 6.4 2.5 3.2 80 1.3 W 13 17 7 9 1020.9 1021.0 0.0
24/08:30pm 6.7 2.7 3.1 78 1.5 W 13 17 7 9 1020.7 1020.8 0.0
24/08:00pm 7.1 3.2 3.2 76 1.6 W 13 17 7 9 1020.2 1020.3 0.0
24/07:30pm 7.6 3.3 3.1 73 1.9 W 15 20 8 11 1019.7 1019.8 0.0
24/07:00pm 7.9 3.2 3.2 72 2.0 W 17 24 9 13 1019.4 1019.5 0.0
24/06:30pm 8.0 3.7 3.1 71 2.1 W 15 20 8 11 1018.7 1018.8 0.0
24/06:00pm 8.4 3.3 3.1 69 2.3 WSW 19 26 10 14 1018.1 1018.1 0.0
24/05:30pm 9.4 3.6 2.3 61 3.0 WSW 22 32 12 17 1017.4 1017.4 0.0
24/05:00pm 10.4 4.7 2.7 59 3.3 WSW 22 33 12 18 1016.9 1016.9 0.0
24/04:30pm 11.2 4.7 2.5 55 3.8 WSW 26 39 14 21 1016.1 1016.2 0.0
24/04:01pm 11.6 4.7 2.4 53 4.0 WSW 28 46 15 25 1015.6 1015.7 0.0
24/04:00pm 11.6 5.1 2.4 53 4.0 WSW 26 43 14 23 1015.6 1015.7 0.0
24/03:30pm 11.8 3.9 2.5 53 4.0 WSW 33 52 18 28 1015.1 1015.2 0.0
24/03:18pm 11.4 4.6 3.2 57 3.6 WSW 28 46 15 25 1014.8 1014.9 0.0
24/03:00pm 11.6 4.0 3.1 56 3.7 WSW 32 44 17 24 1014.6 1014.7 0.0
24/02:30pm 11.2 4.1 3.3 58 3.5 WSW 30 46 16 25 1014.2 1014.3 0.0
24/02:00pm 11.4 3.8 2.9 56 3.7 WSW 32 48 17 26 1014.0 1014.1 0.0
24/01:52pm 12.1 5.4 3.6 56 3.8 WSW 28 48 15 26 1014.0 1014.1 0.0
24/01:30pm 10.9 5.0 3.7 61 3.2 WSW 24 37 13 20 1013.8 1013.9 0.0
24/01:00pm 11.0 4.7 3.8 61 3.2 WSW 26 41 14 22 1013.8 1013.9 0.0
24/12:30pm 11.6 5.0 4.3 61 3.3 WSW 28 43 15 23 1013.7 1013.8 0.0
24/12:00pm 11.5 4.6 4.5 62 3.2 WSW 30 48 16 26 1013.9 1014.0 0.0
24/11:56am 11.7 5.2 4.9 63 3.1 WSW 28 46 15 25 1013.7 1013.8 0.0
24/11:30am 11.5 5.0 4.9 64 3.0 W 28 44 15 24 1013.5 1013.6 0.0
24/11:00am 11.2 4.9 5.9 70 2.5 W 28 43 15 23 1013.5 1013.6 0.0
24/10:30am 10.2 3.5 5.6 73 2.1 W 30 48 16 26 1013.3 1013.4 0.0
24/10:23am 10.3 4.0 5.5 72 2.2 W 28 48 15 26 1013.1 1013.2 0.0
24/10:00am 10.0 3.0 5.8 75 1.9 W 32 46 17 25 1012.8 1012.9 0.0
24/09:30am 9.6 3.8 6.1 79 1.6 W 26 39 14 21 1012.4 1012.5 0.0
24/09:04am 9.7 2.6 5.7 76 1.8 WNW 32 56 17 30 1011.8 1011.9 0.0
24/09:00am 9.8 3.6 6.2 78 1.7 WNW 28 39 15 21 1011.8 1011.9 1.8
24/08:30am 8.7 2.8 6.0 83 1.2 WNW 26 37 14 20 1011.2 1011.3 1.8
24/08:00am 8.3 3.7 6.4 88 0.9 WNW 20 30 11 16 1010.6 1010.7 1.8
24/07:30am 7.6 3.2 6.4 92 0.6 NW 19 28 10 15 1010.4 1010.5 1.8
24/07:00am 7.7 3.1 6.3 91 0.6 WNW 20 26 11 14 1010.1 1010.1 1.8
24/06:30am 7.8 3.3 6.3 90 0.7 WNW 19 28 10 15 1009.7 1009.7 1.8
24/06:00am 8.1 3.7 6.4 89 0.8 WNW 19 26 10 14 1009.3 1009.3 1.8
24/05:30am 8.5 4.0 7.0 90 0.7 WNW 20 28 11 15 1008.8 1008.8 1.8
24/05:00am 8.5 4.3 7.3 92 0.6 WNW 19 28 10 15 1008.5 1008.5 1.8
24/04:30am 8.8 4.4 7.4 91 0.7 WNW 20 30 11 16 1008.3 1008.3 1.8
24/04:00am 9.0 3.9 7.5 90 0.7 WNW 24 32 13 17 1007.9 1007.9 1.8
24/03:30am 9.3 5.0 7.9 91 0.7 WNW 20 30 11 16 1007.8 1007.8 1.8
24/03:00am 9.2 5.0 8.1 93 0.5 NW 20 28 11 15 1007.6 1007.6 1.8
24/02:30am 9.2 5.7 8.9 98 0.1 NW 17 22 9 12 1007.4 1007.4 1.8
24/02:00am 9.1 6.8 9.0 99 0.0 NW 11 17 6 9 1007.3 1007.3 1.8
24/01:30am 9.2 6.8 8.7 97 0.2 W 11 19 6 10 1007.4 1007.4 1.8
24/01:00am 10.1 6.1 8.2 88 0.9 WSW 19 26 10 14 1007.8 1007.8 1.6
24/12:30am 10.9 5.8 7.6 80 1.6 W 24 35 13 19 1007.6 1007.6 1.6
24/12:00am 12.3 7.9 9.1 81 1.6 WNW 22 33 12 18 1007.0 1007.0 1.6
 
Date/Time
EST
Temp
°C
App
Temp
°C
Dew
Point
°C
Rel
Hum
%
Delta-T
°C
Wind Press
QNH
hPa
Press
MSL
hPa
Rain since
9am
mm
Dir  Spd
km/h
Gust
km/h
Spd
kts
Gust
kts
23/11:30pm 12.5 8.2 9.5 82 1.5 WNW 22 32 12 17 1006.9 1006.9 1.6
23/11:00pm 12.4 8.7 10.3 87 1.1 NW 20 32 11 17 1006.7 1006.7 1.6
23/10:30pm 12.3 8.7 10.5 89 0.9 NW 20 28 11 15 1006.5 1006.5 1.6
23/10:00pm 12.4 8.8 10.5 88 1.0 NW 20 26 11 14 1006.5 1006.5 1.6
23/09:30pm 12.4 8.9 10.3 87 1.1 NW 19 26 10 14 1006.4 1006.4 1.6
23/09:00pm 12.4 9.3 10.3 87 1.1 NNW 17 28 9 15 1005.8 1005.9 1.6
23/08:30pm 12.5 9.3 10.0 85 1.3 NNW 17 26 9 14 1005.7 1005.8 1.6
23/08:00pm 11.9 9.0 9.8 87 1.1 NNW 15 19 8 10 1005.6 1005.7 1.6
23/07:30pm 11.9 9.5 10.0 88 1.0 N 13 17 7 9 1005.1 1005.2 1.6
23/07:00pm 11.9 9.8 9.6 86 1.2 NNW 11 15 6 8 1005.3 1005.4 1.6
23/06:30pm 12.2 10.1 9.6 84 1.3 NNW 11 13 6 7 1005.4 1005.5 1.6
23/06:00pm 13.3 11.3 10.3 82 1.6 NNW 11 15 6 8 1005.0 1005.1 1.6
23/05:30pm 13.2 11.2 10.0 81 1.7 NNW 11 17 6 9 1004.9 1005.0 1.6
23/05:00pm 14.4 12.2 10.8 79 1.9 N 13 17 7 9 1005.0 1005.1 1.6
23/04:30pm 14.6 11.6 10.6 77 2.1 NNW 17 26 9 14 1005.2 1005.3 1.6
23/04:00pm 15.2 13.1 12.3 83 1.6 NW 15 19 8 10 1005.3 1005.4 1.6
23/03:30pm 14.2 12.5 12.4 89 1.0 NW 13 17 7 9 1005.7 1005.8 1.6
23/03:00pm 13.9 11.8 12.5 91 0.8 NW 15 20 8 11 1005.7 1005.8 1.6
23/02:30pm 13.1 10.4 11.8 92 0.7 NW 17 28 9 15 1006.2 1006.2 0.2
23/02:00pm 13.8 11.2 12.0 89 1.0 N 17 26 9 14 1006.5 1006.5 0.0
23/01:30pm 13.0 10.4 12.1 94 0.5 N 17 24 9 13 1007.2 1007.2 0.0
23/01:00pm 12.4 9.9 11.1 92 0.7 N 15 22 8 12 1007.9 1007.9 0.0
23/12:30pm 12.8 9.8 10.5 86 1.2 NNW 17 22 9 12 1008.5 1008.5 0.0
23/12:00pm 13.0 9.9 10.2 83 1.5 NNW 17 24 9 13 1009.2 1009.2 0.0
23/11:30am 12.6 10.3 10.5 87 1.1 NNW 13 20 7 11 1009.9 1009.9 0.0
23/11:00am 12.5 10.5 10.0 85 1.3 NW 11 17 6 9 1010.2 1010.2 0.0
23/10:30am 11.9 8.6 9.6 86 1.2 NNW 17 26 9 14 1010.9 1011.0 0.0
23/10:00am 11.5 8.2 9.4 87 1.1 NNW 17 24 9 13 1011.2 1011.3 0.0
23/09:30am 10.8 8.2 9.2 90 0.8 N 13 19 7 10 1011.2 1011.3 0.0
23/09:00am 10.6 7.9 9.0 90 0.8 N 13 17 7 9 1011.2 1011.3 0.2
23/08:30am 10.3 7.6 8.9 91 0.7 N 13 17 7 9 1011.3 1011.4 0.2
23/08:00am 10.0 8.1 8.9 93 0.5 N 9 13 5 7 1011.0 1011.1 0.2
23/07:30am 9.6 6.9 8.8 95 0.4 N 13 17 7 9 1011.2 1011.3 0.2
23/07:00am 9.2 6.5 8.9 98 0.1 N 13 15 7 8 1011.2 1011.3 0.2
23/06:30am 9.1 6.8 9.0 99 0.0 N 11 13 6 7 1011.2 1011.3 0.2
23/06:00am 8.9 6.5 8.8 99 0.0 NNE 11 13 6 7 1011.2 1011.3 0.2
23/05:30am 8.9 6.9 8.8 99 0.0 N 9 13 5 7 1011.3 1011.4 0.2
23/05:00am 8.9 6.2 8.8 99 0.0 N 13 15 7 8 1011.6 1011.7 0.2
23/04:30am 8.1 5.6 8.0 99 0.0 N 11 13 6 7 1011.6 1011.7 0.2
23/04:00am 8.0 5.8 7.9 99 0.0 N 9 11 5 6 1011.7 1011.8 0.2
23/03:30am 8.6 6.6 8.5 99 0.0 N 9 13 5 7 1012.1 1012.2 0.2
23/03:00am 8.4 6.3 8.3 99 0.0 N 9 13 5 7 1012.3 1012.4 0.2
23/02:30am 8.4 5.9 8.3 99 0.0 N 11 13 6 7 1012.4 1012.5 0.0
23/02:00am 8.6 6.2 8.5 99 0.0 N 11 15 6 8 1012.8 1012.9 0.0
23/01:30am 8.4 5.9 8.3 99 0.0 NNW 11 13 6 7 1012.7 1012.8 0.0
23/01:00am 7.7 5.1 7.6 99 0.0 N 11 13 6 7 1013.0 1013.1 0.0
23/12:30am 8.6 6.1 8.3 98 0.1 N 11 13 6 7 1013.1 1013.2 0.0
23/12:00am 8.6 6.2 8.5 99 0.0 N 11 13 6 7 1013.3 1013.4 0.0
 
Date/Time
EST
Temp
°C
App
Temp
°C
Dew
Point
°C
Rel
Hum
%
Delta-T
°C
Wind Press
QNH
hPa
Press
MSL
hPa
Rain since
9am
mm
Dir  Spd
km/h
Gust
km/h
Spd
kts
Gust
kts
22/11:30pm 8.6 6.1 8.2 97 0.2 N 11 13 6 7 1013.7 1013.8 0.0
22/11:00pm 8.8 6.3 8.2 96 0.3 N 11 11 6 6 1013.6 1013.7 0.0
22/10:30pm 9.3 7.2 8.2 93 0.5 NNW 9 11 5 6 1013.9 1014.0 0.0
22/10:00pm 9.6 7.1 8.2 91 0.7 N 11 13 6 7 1013.8 1013.9 0.0
22/09:30pm 10.2 7.8 8.5 89 0.8 NNW 11 13 6 7 1014.0 1014.1 0.0
22/09:00pm 10.4 8.0 8.5 88 0.9 NNW 11 13 6 7 1014.4 1014.5 0.0
22/08:30pm 11.0 8.7 8.9 87 1.0 NNW 11 15 6 8 1014.2 1014.3 0.0
22/08:00pm 11.1 8.4 8.8 86 1.1 NNW 13 17 7 9 1014.1 1014.2 0.0
22/07:30pm 11.1 8.8 9.0 87 1.0 NNW 11 15 6 8 1014.0 1014.1 0.0
22/07:00pm 11.0 9.1 8.9 87 1.0 NNW 9 13 5 7 1013.7 1013.8 0.0
22/06:30pm 11.5 9.2 8.9 84 1.3 NNW 11 13 6 7 1013.4 1013.5 0.0
22/06:00pm 11.8 9.8 8.6 81 1.6 NNW 9 13 5 7 1013.2 1013.3 0.0
22/05:30pm 12.2 10.2 8.5 78 1.8 NW 9 11 5 6 1012.4 1012.5 0.0
22/05:00pm 12.5 10.5 8.6 77 2.0 NW 9 9 5 5 1012.4 1012.5 0.0
22/04:30pm 13.4 11.4 8.5 72 2.5 WNW 9 15 5 8 1012.3 1012.4 0.0
22/04:00pm 14.2 10.9 8.2 67 3.0 WNW 15 20 8 11 1011.9 1012.0 0.0
22/03:30pm 15.3 11.7 8.5 64 3.5 NW 17 20 9 11 1011.8 1011.9 0.0
22/03:00pm 14.6 10.4 7.4 62 3.6 WNW 19 24 10 13 1011.8 1011.9 0.0
22/02:30pm 15.5 11.6 7.3 58 4.1 WNW 17 26 9 14 1011.8 1011.9 0.0
22/02:00pm 15.9 12.9 9.1 64 3.5 WNW 15 26 8 14 1011.8 1011.9 0.0
22/01:30pm 15.2 11.6 8.2 63 3.5 W 17 20 9 11 1012.2 1012.3 0.0
22/01:00pm 15.2 11.8 9.3 68 3.1 W 17 26 9 14 1012.3 1012.4 0.0
22/12:30pm 15.0 11.6 9.1 68 3.0 WNW 17 22 9 12 1012.1 1012.2 0.0
22/12:00pm 14.2 10.6 8.4 68 2.9 WSW 17 24 9 13 1012.6 1012.7 0.0

Other Formats:

Comma delimited format used in spreadsheet applications
http://www.bom.gov.au/fwo/IDN60801/IDN60801.95697.axf

JavaScript Object Notation format (JSON) in row-major order
http://www.bom.gov.au/fwo/IDN60801/IDN60801.95697.json